sensor_id;sensor_type;location;lat;lon;timestamp;pressure;altitude;pressure_sealevel;temperature;humidity
7584;BME280;3833;41.764;26.204;2023-02-22T00:01:41;98750.84;;;5.37;100.00
7584;BME280;3833;41.764;26.204;2023-02-22T00:04:15;98762.06;;;5.38;100.00
7584;BME280;3833;41.764;26.204;2023-02-22T00:06:45;98764.22;;;5.65;100.00
7584;BME280;3833;41.764;26.204;2023-02-22T00:09:14;98777.34;;;5.81;100.00
7584;BME280;3833;41.764;26.204;2023-02-22T00:11:45;98783.13;;;5.67;100.00
7584;BME280;3833;41.764;26.204;2023-02-22T00:14:12;98776.25;;;5.48;100.00
7584;BME280;3833;41.764;26.204;2023-02-22T00:16:39;98771.16;;;5.46;100.00
7584;BME280;3833;41.764;26.204;2023-02-22T00:19:06;98787.94;;;5.75;100.00
7584;BME280;3833;41.764;26.204;2023-02-22T00:21:34;98797.09;;;5.45;100.00
7584;BME280;3833;41.764;26.204;2023-02-22T00:24:02;98798.03;;;5.24;100.00
7584;BME280;3833;41.764;26.204;2023-02-22T00:26:48;98781.97;;;4.98;100.00
7584;BME280;3833;41.764;26.204;2023-02-22T00:29:15;98749.38;;;4.55;100.00
7584;BME280;3833;41.764;26.204;2023-02-22T00:31:42;98787.75;;;4.64;100.00
7584;BME280;3833;41.764;26.204;2023-02-22T00:34:09;98804.16;;;4.63;100.00
7584;BME280;3833;41.764;26.204;2023-02-22T00:36:36;98799.50;;;4.51;100.00
7584;BME280;3833;41.764;26.204;2023-02-22T00:39:03;98794.31;;;4.51;100.00
7584;BME280;3833;41.764;26.204;2023-02-22T00:41:29;98794.22;;;4.54;100.00
7584;BME280;3833;41.764;26.204;2023-02-22T00:43:58;98773.25;;;4.60;100.00
7584;BME280;3833;41.764;26.204;2023-02-22T00:46:24;98774.91;;;5.01;100.00
7584;BME280;3833;41.764;26.204;2023-02-22T00:48:51;98788.84;;;5.37;100.00
7584;BME280;3833;41.764;26.204;2023-02-22T00:51:19;98791.56;;;5.34;100.00
7584;BME280;3833;41.764;26.204;2023-02-22T00:53:46;98781.50;;;5.08;100.00
7584;BME280;3833;41.764;26.204;2023-02-22T00:56:13;98784.13;;;4.88;100.00
7584;BME280;3833;41.764;26.204;2023-02-22T00:58:39;98764.81;;;4.77;100.00
7584;BME280;3833;41.764;26.204;2023-02-22T01:01:08;98788.16;;;4.75;100.00
7584;BME280;3833;41.764;26.204;2023-02-22T01:03:34;98773.25;;;4.60;100.00
7584;BME280;3833;41.764;26.204;2023-02-22T01:06:05;98790.28;;;4.66;100.00
7584;BME280;3833;41.764;26.204;2023-02-22T01:08:32;98787.34;;;4.53;100.00
7584;BME280;3833;41.764;26.204;2023-02-22T01:10:59;98796.00;;;4.52;100.00
7584;BME280;3833;41.764;26.204;2023-02-22T01:13:26;98792.50;;;4.33;100.00
7584;BME280;3833;41.764;26.204;2023-02-22T01:15:53;98772.00;;;4.29;100.00
7584;BME280;3833;41.764;26.204;2023-02-22T01:18:22;98787.13;;;4.38;100.00
7584;BME280;3833;41.764;26.204;2023-02-22T01:20:50;98769.94;;;4.37;100.00
7584;BME280;3833;41.764;26.204;2023-02-22T01:23:17;98787.41;;;4.10;100.00
7584;BME280;3833;41.764;26.204;2023-02-22T01:25:44;98706.91;;;4.01;100.00
7584;BME280;3833;41.764;26.204;2023-02-22T01:28:10;98756.66;;;4.05;100.00
7584;BME280;3833;41.764;26.204;2023-02-22T01:30:38;98780.88;;;4.83;100.00
7584;BME280;3833;41.764;26.204;2023-02-22T01:33:06;98781.88;;;4.81;100.00
7584;BME280;3833;41.764;26.204;2023-02-22T01:35:36;98790.00;;;4.92;100.00
7584;BME280;3833;41.764;26.204;2023-02-22T01:38:05;98760.16;;;4.45;100.00
7584;BME280;3833;41.764;26.204;2023-02-22T01:40:34;98802.34;;;4.65;100.00
7584;BME280;3833;41.764;26.204;2023-02-22T01:43:03;98787.69;;;4.24;100.00
7584;BME280;3833;41.764;26.204;2023-02-22T01:45:52;98805.78;;;4.24;100.00
7584;BME280;3833;41.764;26.204;2023-02-22T01:48:23;98795.81;;;4.15;100.00
7584;BME280;3833;41.764;26.204;2023-02-22T01:50:56;98798.09;;;4.02;100.00
7584;BME280;3833;41.764;26.204;2023-02-22T01:53:31;98786.78;;;3.83;100.00
7584;BME280;3833;41.764;26.204;2023-02-22T01:56:00;98794.84;;;3.75;100.00
7584;BME280;3833;41.764;26.204;2023-02-22T01:58:29;98790.16;;;3.85;100.00
7584;BME280;3833;41.764;26.204;2023-02-22T02:00:58;98786.78;;;3.83;100.00
7584;BME280;3833;41.764;26.204;2023-02-22T02:03:28;98749.69;;;3.64;100.00
7584;BME280;3833;41.764;26.204;2023-02-22T02:06:01;98750.66;;;3.61;100.00
7584;BME280;3833;41.764;26.204;2023-02-22T02:08:34;98771.38;;;3.81;100.00
7584;BME280;3833;41.764;26.204;2023-02-22T02:11:04;98778.75;;;4.11;100.00
7584;BME280;3833;41.764;26.204;2023-02-22T02:13:31;98781.66;;;4.04;100.00
7584;BME280;3833;41.764;26.204;2023-02-22T02:15:58;98757.31;;;3.67;100.00
7584;BME280;3833;41.764;26.204;2023-02-22T02:18:26;98770.63;;;3.78;100.00
7584;BME280;3833;41.764;26.204;2023-02-22T02:24:39;98776.25;;;3.89;100.00
7584;BME280;3833;41.764;26.204;2023-02-22T02:27:16;98779.59;;;3.91;100.00
7584;BME280;3833;41.764;26.204;2023-02-22T02:30:12;98768.13;;;3.76;100.00
7584;BME280;3833;41.764;26.204;2023-02-22T02:32:51;98780.84;;;3.81;100.00
7584;BME280;3833;41.764;26.204;2023-02-22T02:35:28;98791.25;;;4.01;100.00
7584;BME280;3833;41.764;26.204;2023-02-22T02:38:05;98785.22;;;3.79;100.00
7584;BME280;3833;41.764;26.204;2023-02-22T02:40:40;98768.66;;;3.63;100.00
7584;BME280;3833;41.764;26.204;2023-02-22T02:43:14;98790.75;;;3.70;100.00
7584;BME280;3833;41.764;26.204;2023-02-22T02:45:46;98790.88;;;3.67;100.00
7584;BME280;3833;41.764;26.204;2023-02-22T02:48:18;98792.09;;;3.57;100.00
7584;BME280;3833;41.764;26.204;2023-02-22T02:50:48;98792.16;;;3.55;100.00
7584;BME280;3833;41.764;26.204;2023-02-22T02:53:18;98702.50;;;2.95;100.00
7584;BME280;3833;41.764;26.204;2023-02-22T02:55:46;98792.78;;;3.39;100.00
7584;BME280;3833;41.764;26.204;2023-02-22T02:58:18;98784.16;;;3.40;100.00
7584;BME280;3833;41.764;26.204;2023-02-22T03:00:46;98767.34;;;3.30;100.00
7584;BME280;3833;41.764;26.204;2023-02-22T03:03:45;98792.00;;;3.37;100.00
7584;BME280;3833;41.764;26.204;2023-02-22T03:06:28;98770.25;;;3.21;100.00
7584;BME280;3833;41.764;26.204;2023-02-22T03:09:07;98793.09;;;3.07;100.00
7584;BME280;3833;41.764;26.204;2023-02-22T03:11:43;98697.16;;;2.53;100.00
7584;BME280;3833;41.764;26.204;2023-02-22T03:14:21;98789.84;;;3.02;100.00
7584;BME280;3833;41.764;26.204;2023-02-22T03:16:51;98789.56;;;3.09;100.00
7584;BME280;3833;41.764;26.204;2023-02-22T03:19:26;98795.34;;;2.93;100.00
7584;BME280;3833;41.764;26.204;2023-02-22T03:22:01;98794.06;;;3.05;100.00
7584;BME280;3833;41.764;26.204;2023-02-22T03:24:30;98797.22;;;2.88;100.00
7584;BME280;3833;41.764;26.204;2023-02-22T03:27:02;98802.91;;;2.98;100.00
7584;BME280;3833;41.764;26.204;2023-02-22T03:29:37;98711.72;;;2.54;100.00
7584;BME280;3833;41.764;26.204;2023-02-22T03:32:08;98806.59;;;3.15;100.00
7584;BME280;3833;41.764;26.204;2023-02-22T03:34:42;98802.16;;;3.18;100.00
7584;BME280;3833;41.764;26.204;2023-02-22T03:37:14;98804.84;;;3.15;100.00
7584;BME280;3833;41.764;26.204;2023-02-22T03:39:45;98809.16;;;3.15;100.00
7584;BME280;3833;41.764;26.204;2023-02-22T03:42:16;98783.69;;;3.06;100.00
7584;BME280;3833;41.764;26.204;2023-02-22T03:44:45;98792.91;;;3.13;100.00
7584;BME280;3833;41.764;26.204;2023-02-22T03:47:16;98798.56;;;3.22;100.00
7584;BME280;3833;41.764;26.204;2023-02-22T03:49:49;98800.97;;;3.27;100.00
7584;BME280;3833;41.764;26.204;2023-02-22T03:52:17;98799.50;;;3.20;100.00
7584;BME280;3833;41.764;26.204;2023-02-22T03:54:44;98793.34;;;3.47;100.00
7584;BME280;3833;41.764;26.204;2023-02-22T03:57:14;98790.56;;;3.53;100.00
7584;BME280;3833;41.764;26.204;2023-02-22T03:59:43;98714.16;;;2.82;100.00
7584;BME280;3833;41.764;26.204;2023-02-22T04:02:11;98787.28;;;3.25;100.00
7584;BME280;3833;41.764;26.204;2023-02-22T04:04:38;98795.81;;;3.50;100.00
7584;BME280;3833;41.764;26.204;2023-02-22T04:07:06;98795.34;;;3.39;100.00
7584;BME280;3833;41.764;26.204;2023-02-22T04:09:33;98796.03;;;3.21;100.00
7584;BME280;3833;41.764;26.204;2023-02-22T04:12:00;98791.53;;;3.03;100.00
7584;BME280;3833;41.764;26.204;2023-02-22T04:14:27;98774.13;;;3.32;100.00
7584;BME280;3833;41.764;26.204;2023-02-22T04:16:53;98789.59;;;3.32;100.00
7584;BME280;3833;41.764;26.204;2023-02-22T04:19:20;98785.13;;;3.37;100.00
7584;BME280;3833;41.764;26.204;2023-02-22T04:21:47;98793.47;;;3.44;100.00
7584;BME280;3833;41.764;26.204;2023-02-22T04:24:15;98782.34;;;3.19;100.00
7584;BME280;3833;41.764;26.204;2023-02-22T04:26:42;98804.00;;;3.15;100.00
7584;BME280;3833;41.764;26.204;2023-02-22T04:29:09;98810.88;;;3.14;100.00
7584;BME280;3833;41.764;26.204;2023-02-22T04:31:36;98810.59;;;3.22;100.00
7584;BME280;3833;41.764;26.204;2023-02-22T04:34:03;98804.56;;;3.23;100.00
7584;BME280;3833;41.764;26.204;2023-02-22T04:36:30;98809.72;;;3.23;100.00
7584;BME280;3833;41.764;26.204;2023-02-22T04:38:57;98813.53;;;3.13;100.00
7584;BME280;3833;41.764;26.204;2023-02-22T04:41:25;98813.03;;;3.49;100.00
7584;BME280;3833;41.764;26.204;2023-02-22T04:43:52;98749.25;;;2.84;100.00
7584;BME280;3833;41.764;26.204;2023-02-22T04:46:19;98820.56;;;3.08;100.00
7584;BME280;3833;41.764;26.204;2023-02-22T04:48:46;98801.84;;;3.03;100.00
7584;BME280;3833;41.764;26.204;2023-02-22T04:51:13;98827.41;;;3.09;100.00
7584;BME280;3833;41.764;26.204;2023-02-22T04:53:40;98839.50;;;3.07;100.00
7584;BME280;3833;41.764;26.204;2023-02-22T04:56:07;98837.06;;;2.78;100.00
7584;BME280;3833;41.764;26.204;2023-02-22T04:58:35;98839.63;;;2.80;100.00
7584;BME280;3833;41.764;26.204;2023-02-22T05:01:02;98804.53;;;2.76;100.00
7584;BME280;3833;41.764;26.204;2023-02-22T05:03:29;98837.09;;;3.03;100.00
7584;BME280;3833;41.764;26.204;2023-02-22T05:05:56;98824.59;;;2.92;100.00
7584;BME280;3833;41.764;26.204;2023-02-22T05:08:23;98837.09;;;3.03;100.00
7584;BME280;3833;41.764;26.204;2023-02-22T05:10:50;98838.34;;;3.15;100.00
7584;BME280;3833;41.764;26.204;2023-02-22T05:13:17;98848.88;;;3.34;100.00
7584;BME280;3833;41.764;26.204;2023-02-22T05:15:45;98844.38;;;3.62;100.00
7584;BME280;3833;41.764;26.204;2023-02-22T05:18:12;98843.94;;;3.74;100.00
7584;BME280;3833;41.764;26.204;2023-02-22T05:20:39;98845.47;;;4.01;100.00
7584;BME280;3833;41.764;26.204;2023-02-22T05:23:06;98833.44;;;4.00;100.00
7584;BME280;3833;41.764;26.204;2023-02-22T05:25:33;98852.75;;;4.12;100.00
7584;BME280;3833;41.764;26.204;2023-02-22T05:28:01;98780.44;;;3.70;100.00
7584;BME280;3833;41.764;26.204;2023-02-22T05:30:30;98853.16;;;4.23;100.00
7584;BME280;3833;41.764;26.204;2023-02-22T05:32:58;98860.06;;;4.44;100.00
7584;BME280;3833;41.764;26.204;2023-02-22T05:35:26;98834.66;;;4.55;100.00
7584;BME280;3833;41.764;26.204;2023-02-22T05:37:54;98864.03;;;5.14;100.00
7584;BME280;3833;41.764;26.204;2023-02-22T05:40:23;98858.94;;;5.51;100.00
7584;BME280;3833;41.764;26.204;2023-02-22T05:42:51;98859.16;;;5.65;100.00
7584;BME280;3833;41.764;26.204;2023-02-22T05:45:20;98869.09;;;5.94;100.00
7584;BME280;3833;41.764;26.204;2023-02-22T05:47:47;98875.69;;;5.62;100.00
7584;BME280;3833;41.764;26.204;2023-02-22T05:50:16;98873.84;;;6.03;100.00
7584;BME280;3833;41.764;26.204;2023-02-22T05:52:44;98875.09;;;6.66;100.00
7584;BME280;3833;41.764;26.204;2023-02-22T05:55:13;98875.09;;;6.66;100.00
7584;BME280;3833;41.764;26.204;2023-02-22T05:57:41;98856.00;;;6.50;100.00
7584;BME280;3833;41.764;26.204;2023-02-22T06:00:09;98861.84;;;7.06;100.00
7584;BME280;3833;41.764;26.204;2023-02-22T06:02:36;98801.91;;;6.78;100.00
7584;BME280;3833;41.764;26.204;2023-02-22T06:05:04;98884.69;;;7.33;100.00
7584;BME280;3833;41.764;26.204;2023-02-22T06:07:32;98886.53;;;7.64;100.00
7584;BME280;3833;41.764;26.204;2023-02-22T06:09:59;98891.31;;;8.04;100.00
7584;BME280;3833;41.764;26.204;2023-02-22T06:12:25;98886.50;;;8.59;100.00
7584;BME280;3833;41.764;26.204;2023-02-22T06:14:52;98874.72;;;8.68;100.00
7584;BME280;3833;41.764;26.204;2023-02-22T06:17:19;98889.97;;;9.62;100.00
7584;BME280;3833;41.764;26.204;2023-02-22T06:19:46;98881.44;;;10.02;100.00
7584;BME280;3833;41.764;26.204;2023-02-22T06:22:15;98857.38;;;9.83;100.00
7584;BME280;3833;41.764;26.204;2023-02-22T06:24:44;98885.44;;;10.07;100.00
7584;BME280;3833;41.764;26.204;2023-02-22T06:27:11;98885.13;;;10.26;100.00
7584;BME280;3833;41.764;26.204;2023-02-22T06:29:38;98891.44;;;10.76;100.00
7584;BME280;3833;41.764;26.204;2023-02-22T06:32:04;98889.25;;;10.82;98.97
7584;BME280;3833;41.764;26.204;2023-02-22T06:34:31;98842.38;;;10.93;96.79
7584;BME280;3833;41.764;26.204;2023-02-22T06:36:58;98891.50;;;11.52;92.47
7584;BME280;3833;41.764;26.204;2023-02-22T06:39:25;98889.59;;;11.29;92.97
7584;BME280;3833;41.764;26.204;2023-02-22T06:41:53;98878.13;;;11.44;92.88
7584;BME280;3833;41.764;26.204;2023-02-22T06:44:22;98890.41;;;11.81;93.13
7584;BME280;3833;41.764;26.204;2023-02-22T06:46:49;98895.75;;;11.92;92.43
7584;BME280;3833;41.764;26.204;2023-02-22T06:49:17;98893.75;;;11.58;95.13
7584;BME280;3833;41.764;26.204;2023-02-22T06:51:44;98910.63;;;12.40;95.55
7584;BME280;3833;41.764;26.204;2023-02-22T06:54:11;98907.56;;;15.25;83.41
7584;BME280;3833;41.764;26.204;2023-02-22T06:56:39;98909.91;;;18.57;63.67
7584;BME280;3833;41.764;26.204;2023-02-22T06:59:07;98903.25;;;17.62;62.09
7584;BME280;3833;41.764;26.204;2023-02-22T07:01:34;98917.59;;;16.72;62.27
7584;BME280;3833;41.764;26.204;2023-02-22T07:04:01;98903.00;;;16.29;63.59
7584;BME280;3833;41.764;26.204;2023-02-22T07:06:28;98910.38;;;18.53;58.61
7584;BME280;3833;41.764;26.204;2023-02-22T07:08:55;98902.00;;;20.06;54.35
7584;BME280;3833;41.764;26.204;2023-02-22T07:11:22;98835.81;;;18.13;55.36
7584;BME280;3833;41.764;26.204;2023-02-22T07:13:50;98890.50;;;21.05;49.90
7584;BME280;3833;41.764;26.204;2023-02-22T07:16:18;98890.41;;;17.85;55.08
7584;BME280;3833;41.764;26.204;2023-02-22T07:18:45;98883.91;;;16.37;60.57
7584;BME280;3833;41.764;26.204;2023-02-22T07:21:12;98889.03;;;16.87;60.76
7584;BME280;3833;41.764;26.204;2023-02-22T07:23:39;98880.25;;;16.28;61.39
7584;BME280;3833;41.764;26.204;2023-02-22T07:26:06;98871.69;;;15.76;62.42
7584;BME280;3833;41.764;26.204;2023-02-22T07:28:33;98900.38;;;15.79;64.80
7584;BME280;3833;41.764;26.204;2023-02-22T07:31:00;98904.50;;;16.02;62.69
7584;BME280;3833;41.764;26.204;2023-02-22T07:33:29;98895.78;;;15.40;64.18
7584;BME280;3833;41.764;26.204;2023-02-22T07:35:56;98897.00;;;16.57;63.15
7584;BME280;3833;41.764;26.204;2023-02-22T07:38:22;98894.38;;;17.34;60.52
7584;BME280;3833;41.764;26.204;2023-02-22T07:40:49;98878.47;;;16.77;60.52
7584;BME280;3833;41.764;26.204;2023-02-22T07:43:35;98887.16;;;19.35;56.24
7584;BME280;3833;41.764;26.204;2023-02-22T07:46:15;98887.53;;;19.40;55.75
7584;BME280;3833;41.764;26.204;2023-02-22T07:49:15;98882.13;;;22.52;49.39
7584;BME280;3833;41.764;26.204;2023-02-22T07:51:43;98870.94;;;21.06;50.70
7584;BME280;3833;41.764;26.204;2023-02-22T07:54:23;98879.56;;;21.16;49.97
7584;BME280;3833;41.764;26.204;2023-02-22T07:57:04;98870.91;;;23.92;46.01
7584;BME280;3833;41.764;26.204;2023-02-22T07:59:46;98877.25;;;21.93;45.62
7584;BME280;3833;41.764;26.204;2023-02-22T08:02:37;98869.63;;;24.03;43.64
7584;BME280;3833;41.764;26.204;2023-02-22T08:05:10;98870.75;;;26.33;40.49
7584;BME280;3833;41.764;26.204;2023-02-22T08:07:45;98861.34;;;27.56;37.91
7584;BME280;3833;41.764;26.204;2023-02-22T08:10:42;98856.22;;;27.94;35.24
7584;BME280;3833;41.764;26.204;2023-02-22T08:13:25;98836.34;;;26.30;36.67
7584;BME280;3833;41.764;26.204;2023-02-22T08:16:02;98863.06;;;26.51;37.93
7584;BME280;3833;41.764;26.204;2023-02-22T08:18:43;98871.75;;;27.00;36.89
7584;BME280;3833;41.764;26.204;2023-02-22T08:21:14;98861.47;;;27.10;35.23
7584;BME280;3833;41.764;26.204;2023-02-22T08:23:43;98855.06;;;26.57;35.90
7584;BME280;3833;41.764;26.204;2023-02-22T08:26:11;98852.91;;;24.52;38.17
7584;BME280;3833;41.764;26.204;2023-02-22T08:28:58;98855.09;;;25.13;37.95
7584;BME280;3833;41.764;26.204;2023-02-22T08:31:35;98833.56;;;24.21;39.00
7584;BME280;3833;41.764;26.204;2023-02-22T08:34:02;98875.59;;;26.44;37.36
7584;BME280;3833;41.764;26.204;2023-02-22T08:36:30;98869.03;;;28.31;35.42
7584;BME280;3833;41.764;26.204;2023-02-22T08:38:58;98824.47;;;29.11;32.79
7584;BME280;3833;41.764;26.204;2023-02-22T08:41:25;98848.38;;;30.29;31.50
7584;BME280;3833;41.764;26.204;2023-02-22T08:43:52;98853.16;;;30.09;31.28
7584;BME280;3833;41.764;26.204;2023-02-22T08:46:19;98858.81;;;28.52;31.52
7584;BME280;3833;41.764;26.204;2023-02-22T08:48:50;98855.81;;;28.10;32.47
7584;BME280;3833;41.764;26.204;2023-02-22T08:51:17;98841.38;;;27.78;31.91
7584;BME280;3833;41.764;26.204;2023-02-22T08:53:48;98841.88;;;25.46;33.51
7584;BME280;3833;41.764;26.204;2023-02-22T08:56:15;98851.53;;;24.56;35.02
7584;BME280;3833;41.764;26.204;2023-02-22T08:58:42;98845.97;;;24.43;35.44
7584;BME280;3833;41.764;26.204;2023-02-22T09:01:09;98846.75;;;24.87;33.69
7584;BME280;3833;41.764;26.204;2023-02-22T09:03:36;98848.16;;;26.08;33.71
7584;BME280;3833;41.764;26.204;2023-02-22T09:06:03;98848.38;;;27.66;31.89
7584;BME280;3833;41.764;26.204;2023-02-22T09:08:32;98844.69;;;27.80;32.08
7584;BME280;3833;41.764;26.204;2023-02-22T09:11:00;98815.25;;;25.18;35.02
7584;BME280;3833;41.764;26.204;2023-02-22T09:13:27;98831.38;;;28.24;32.34
7584;BME280;3833;41.764;26.204;2023-02-22T09:15:54;98789.75;;;28.02;32.08
7584;BME280;3833;41.764;26.204;2023-02-22T09:18:21;98795.09;;;25.63;33.42
7584;BME280;3833;41.764;26.204;2023-02-22T09:20:48;98828.84;;;29.43;29.88
7584;BME280;3833;41.764;26.204;2023-02-22T09:23:14;98831.44;;;28.05;28.98
7584;BME280;3833;41.764;26.204;2023-02-22T09:25:41;98768.19;;;25.92;30.18
7584;BME280;3833;41.764;26.204;2023-02-22T09:28:10;98826.09;;;26.06;31.10
7584;BME280;3833;41.764;26.204;2023-02-22T09:30:37;98839.06;;;27.56;30.82
7584;BME280;3833;41.764;26.204;2023-02-22T09:33:06;98833.06;;;27.54;30.56
7584;BME280;3833;41.764;26.204;2023-02-22T09:35:35;98830.50;;;25.86;28.85
7584;BME280;3833;41.764;26.204;2023-02-22T09:38:03;98838.44;;;24.61;33.98
7584;BME280;3833;41.764;26.204;2023-02-22T09:40:33;98781.84;;;24.36;31.35
7584;BME280;3833;41.764;26.204;2023-02-22T09:43:17;98819.69;;;24.11;30.05
7584;BME280;3833;41.764;26.204;2023-02-22T09:45:56;98820.13;;;23.26;31.43
7584;BME280;3833;41.764;26.204;2023-02-22T09:48:29;98814.28;;;23.09;31.20
7584;BME280;3833;41.764;26.204;2023-02-22T09:51:01;98776.38;;;22.76;31.81
7584;BME280;3833;41.764;26.204;2023-02-22T09:53:36;98808.47;;;23.27;31.59
7584;BME280;3833;41.764;26.204;2023-02-22T09:56:08;98816.91;;;23.53;30.66
7584;BME280;3833;41.764;26.204;2023-02-22T09:58:39;98801.53;;;23.55;30.71
7584;BME280;3833;41.764;26.204;2023-02-22T10:01:18;98798.09;;;23.69;29.75
7584;BME280;3833;41.764;26.204;2023-02-22T10:03:50;98769.44;;;23.34;30.27
7584;BME280;3833;41.764;26.204;2023-02-22T10:06:23;98731.72;;;22.56;31.92
7584;BME280;3833;41.764;26.204;2023-02-22T10:08:52;98786.94;;;22.84;33.77
7584;BME280;3833;41.764;26.204;2023-02-22T10:11:38;98806.06;;;22.88;35.20
7584;BME280;3833;41.764;26.204;2023-02-22T10:14:32;98764.19;;;22.51;32.34
7584;BME280;3833;41.764;26.204;2023-02-22T10:17:05;98779.91;;;22.91;31.04
7584;BME280;3833;41.764;26.204;2023-02-22T10:19:41;98782.00;;;22.51;31.61
7584;BME280;3833;41.764;26.204;2023-02-22T10:22:20;98746.63;;;22.42;31.41
7584;BME280;3833;41.764;26.204;2023-02-22T10:24:57;98759.31;;;22.63;31.17
7584;BME280;3833;41.764;26.204;2023-02-22T10:27:31;98761.13;;;22.93;31.10
7584;BME280;3833;41.764;26.204;2023-02-22T10:30:04;98761.97;;;22.63;31.95
7584;BME280;3833;41.764;26.204;2023-02-22T10:32:40;98536.81;;;20.88;32.66
7584;BME280;3833;41.764;26.204;2023-02-22T10:35:19;98641.97;;;21.51;31.74
7584;BME280;3833;41.764;26.204;2023-02-22T10:37:47;98754.34;;;21.75;32.37
7584;BME280;3833;41.764;26.204;2023-02-22T10:40:20;98751.91;;;21.66;32.72
7584;BME280;3833;41.764;26.204;2023-02-22T10:42:57;98741.72;;;21.77;32.87
7584;BME280;3833;41.764;26.204;2023-02-22T10:45:28;98716.78;;;21.16;32.79
7584;BME280;3833;41.764;26.204;2023-02-22T10:47:58;98705.50;;;20.90;33.05
7584;BME280;3833;41.764;26.204;2023-02-22T10:50:27;98732.66;;;21.48;33.70
7584;BME280;3833;41.764;26.204;2023-02-22T10:52:55;98649.09;;;20.96;33.31
7584;BME280;3833;41.764;26.204;2023-02-22T10:55:22;98727.13;;;21.73;32.51
7584;BME280;3833;41.764;26.204;2023-02-22T10:57:51;98615.31;;;21.36;32.98
7584;BME280;3833;41.764;26.204;2023-02-22T11:00:29;98726.44;;;21.87;32.88
7584;BME280;3833;41.764;26.204;2023-02-22T11:02:58;98716.38;;;21.51;33.54
7584;BME280;3833;41.764;26.204;2023-02-22T11:05:29;98719.22;;;21.49;33.84
7584;BME280;3833;41.764;26.204;2023-02-22T11:08:25;98717.72;;;22.01;32.01
7584;BME280;3833;41.764;26.204;2023-02-22T11:10:54;98722.78;;;21.80;33.72
7584;BME280;3833;41.764;26.204;2023-02-22T11:13:27;98604.81;;;20.81;35.94
7584;BME280;3833;41.764;26.204;2023-02-22T11:15:58;98692.19;;;20.66;36.11
7584;BME280;3833;41.764;26.204;2023-02-22T11:18:29;98712.94;;;21.26;35.71
7584;BME280;3833;41.764;26.204;2023-02-22T11:21:02;98710.59;;;21.31;34.95
7584;BME280;3833;41.764;26.204;2023-02-22T11:23:30;98689.91;;;21.73;33.72
7584;BME280;3833;41.764;26.204;2023-02-22T11:26:04;98701.91;;;21.53;33.83
7584;BME280;3833;41.764;26.204;2023-02-22T11:28:32;98611.50;;;21.31;33.64
7584;BME280;3833;41.764;26.204;2023-02-22T11:31:12;98620.22;;;21.63;32.91
7584;BME280;3833;41.764;26.204;2023-02-22T11:33:45;98591.00;;;21.63;33.22
7584;BME280;3833;41.764;26.204;2023-02-22T11:36:30;98684.41;;;22.13;32.69
7584;BME280;3833;41.764;26.204;2023-02-22T11:38:57;98687.06;;;22.13;32.28
7584;BME280;3833;41.764;26.204;2023-02-22T11:41:26;98576.13;;;21.38;32.40
7584;BME280;3833;41.764;26.204;2023-02-22T11:44:19;98682.69;;;21.98;33.34
7584;BME280;3833;41.764;26.204;2023-02-22T11:46:48;98681.19;;;22.25;33.23
7584;BME280;3833;41.764;26.204;2023-02-22T11:49:16;98681.69;;;22.29;33.77
7584;BME280;3833;41.764;26.204;2023-02-22T11:51:51;98674.00;;;22.34;34.08
7584;BME280;3833;41.764;26.204;2023-02-22T11:54:31;98675.03;;;22.25;33.86
7584;BME280;3833;41.764;26.204;2023-02-22T11:57:14;98673.25;;;21.33;35.30
7584;BME280;3833;41.764;26.204;2023-02-22T11:59:57;98668.22;;;21.54;35.89
7584;BME280;3833;41.764;26.204;2023-02-22T12:02:48;98550.06;;;20.96;34.95
7584;BME280;3833;41.764;26.204;2023-02-22T12:05:25;98661.13;;;22.15;34.28
7584;BME280;3833;41.764;26.204;2023-02-22T12:08:07;98667.88;;;22.33;34.06
7584;BME280;3833;41.764;26.204;2023-02-22T12:10:48;98652.56;;;22.05;34.08
7584;BME280;3833;41.764;26.204;2023-02-22T12:13:35;98650.44;;;22.01;33.79
7584;BME280;3833;41.764;26.204;2023-02-22T12:16:15;98562.63;;;21.09;34.53
7584;BME280;3833;41.764;26.204;2023-02-22T12:18:57;98649.75;;;21.68;34.35
7584;BME280;3833;41.764;26.204;2023-02-22T12:21:30;98652.09;;;21.63;34.32
7584;BME280;3833;41.764;26.204;2023-02-22T12:24:03;98622.09;;;21.85;34.83
7584;BME280;3833;41.764;26.204;2023-02-22T12:26:35;98633.97;;;21.97;32.88
7584;BME280;3833;41.764;26.204;2023-02-22T12:29:07;98600.13;;;21.53;33.22
7584;BME280;3833;41.764;26.204;2023-02-22T12:31:40;98622.81;;;21.71;33.24
7584;BME280;3833;41.764;26.204;2023-02-22T12:34:18;98622.53;;;22.19;32.17
7584;BME280;3833;41.764;26.204;2023-02-22T12:36:54;98617.03;;;22.51;31.33
7584;BME280;3833;41.764;26.204;2023-02-22T12:39:36;98581.06;;;22.32;32.03
7584;BME280;3833;41.764;26.204;2023-02-22T12:42:12;98597.16;;;22.39;31.70
7584;BME280;3833;41.764;26.204;2023-02-22T12:44:42;98616.09;;;22.44;32.45
7584;BME280;3833;41.764;26.204;2023-02-22T12:47:15;98585.66;;;22.16;32.65
7584;BME280;3833;41.764;26.204;2023-02-22T12:49:49;98618.53;;;22.23;31.79
7584;BME280;3833;41.764;26.204;2023-02-22T12:52:27;98612.97;;;22.32;30.87
7584;BME280;3833;41.764;26.204;2023-02-22T12:55:03;98608.25;;;22.20;31.39
7584;BME280;3833;41.764;26.204;2023-02-22T12:57:39;98615.19;;;22.29;31.13
7584;BME280;3833;41.764;26.204;2023-02-22T13:00:15;98612.88;;;22.26;31.77
7584;BME280;3833;41.764;26.204;2023-02-22T13:02:47;98580.34;;;21.94;32.23
7584;BME280;3833;41.764;26.204;2023-02-22T13:05:18;98606.94;;;21.94;32.58
7584;BME280;3833;41.764;26.204;2023-02-22T13:07:53;98604.97;;;21.88;31.86
7584;BME280;3833;41.764;26.204;2023-02-22T13:10:39;98348.41;;;20.41;32.14
7584;BME280;3833;41.764;26.204;2023-02-22T13:13:16;98599.28;;;21.68;32.13
7584;BME280;3833;41.764;26.204;2023-02-22T13:15:51;98595.97;;;21.66;31.42
7584;BME280;3833;41.764;26.204;2023-02-22T13:18:29;98602.75;;;21.69;31.07
7584;BME280;3833;41.764;26.204;2023-02-22T13:21:02;98586.72;;;21.46;31.85
7584;BME280;3833;41.764;26.204;2023-02-22T13:23:36;98602.97;;;21.59;32.33
7584;BME280;3833;41.764;26.204;2023-02-22T13:26:09;98605.44;;;21.61;32.58
7584;BME280;3833;41.764;26.204;2023-02-22T13:28:40;98598.81;;;21.49;32.52
7584;BME280;3833;41.764;26.204;2023-02-22T13:31:24;98600.09;;;21.61;33.02
7584;BME280;3833;41.764;26.204;2023-02-22T13:34:09;98583.06;;;21.47;33.65
7584;BME280;3833;41.764;26.204;2023-02-22T13:36:59;98574.13;;;21.40;34.73